Friendswood, TX (77549)

5:13 PM CDT on July 02, 2015 (GMT -0500)
KTXFRIEN21 | | Change Station
CLOSE
Current Station
Personal Weather Station
Location: Friendswood, TX
Elevation: 46 ft
Nearby Weather Stations

Elev 46 ft 29.53 °N, 95.20 °W | Updated 9 seconds ago

Clear
Clear
88.4 °F
Feels Like 102 °F
N
0.0
Wind Variable Wind from ESE
Gusts 7.0 mph

Today
High -- | Low -- °F
--% Chance of Precip.
Yesterday
High -- | Low -- °F
Precip. -- in
6:24 AM 8:24 PM
Full, 99% visible
Pressure 30.03 in
Visibility 9.0 miles
Clouds Clear
Heat Index 102 °F
Dew Point 78 °F
Humidity 71%
Rainfall 0.00 in
Snow Depth Not available.
UV 6 out of 12
Pollen 3.70 out of 12
Air Quality Not available.
Flu Activity Not available.
METAR KLVJ 022153Z AUTO 16011KT 9SM CLR 32/23 A3003 RMK AO2 SLP167 T03170233

More Conditions Fewer Conditions

Pressure 30.03 in
Visibility 9.0 miles
Clouds Clear
Heat Index 102 °F
Dew Point 78 °F
Humidity 71%
Rainfall 0.00 in
Snow Depth Not available.
UV 6 out of 12
Pollen 3.70 out of 12
Air Quality Not available.
Flu Activity Not available.
METAR KLVJ 022153Z AUTO 16011KT 9SM CLR 32/23 A3003 RMK AO2 SLP167 T03170233

More Conditions Fewer Conditions

10-Day Weather Forecast

×

Almanac

Astronomy

Jul. 02, 2015 Rise Set
Actual Time
Civil Twilight
Nautical Twilight
Astronomical Twilight
Moon
Length of Visible Light
Length of Day
Tomorrow will be .
, % of the Moon is Illuminated

Today's Extremes

State Highs State Lows

Community

WunderPhotos

Upload Photos

1,834,560 photos uploaded!

WunderBlogs® & News

Nearby

Air Quality

  Air Quality AQ Index Pollutant
Not available.

Snow Depth

Station Depth Elevation

Earthquake Activity

City Distance Mag. Time & Date
Minimum magnitude displayed is 2.5.

Coastal Water Temperatures

Place Temperature

Stations

Nearby Weather Stations

Station Location Temp. Windchill Dew Point Humidity Wind Precip. Elev Updated Type